• Join FlightAware (Why Join?)
  • Login
  • US Flag 
05:01AM EDT


 

Airport Tracker/Info


-or-


 

Live Flight TrackerFlight Track Log ✈ TRS78 ✈ 16-Jul-2013 ✈ KATL - KDCA

Flight Track Log - Related Links

Times and Time Zones

All times are in EDT time to prevent confusion due to time zone crossing. See the TRS78 flight status page for this flight to view local times or setup timezone preferences in your user account.

Time Position Orientation Groundspeed Altitude Reporting Facility
EDT Latitude Longitude Course Direction KTS MPH feet Rate Location/Type
10:13PM 33.6331 -84.3781 48° Northeast 454 522 2,900  Level Atlanta Center
10:14PM 33.6333 -84.3000 90° East 259 298 4,700 2,400 Climbing Atlanta TRACON
10:15PM 33.6333 -84.2000 90° East 266 306 8,100 2,580 Climbing Atlanta TRACON
10:16PM 33.6356 -84.1186 88° East 275 316 10,100 1,800 Climbing Atlanta Center
10:17PM 33.6858 -84.0364 54° Northeast 275 316 11,500 1,800 Climbing Atlanta Center
10:18PM 33.7503 -83.9514 48° Northeast 320 368 13,700 1,980 Climbing Atlanta Center
10:19PM 33.8692 -83.7800 48° Northeast  Level FlightAware Approximate
10:19PM 33.8192 -83.8639 47° Northeast 344 396 15,500  Level Atlanta Center
10:20PM 33.8817 -83.7786 49° Northeast 358 412 17,300 1,860 Climbing Atlanta Center
10:21PM 33.9503 -83.6833 49° Northeast 370 426 19,300 1,980 Climbing Atlanta Center
10:22PM 34.0167 -83.5778 53° Northeast 384 442 21,300 1,860 Climbing Atlanta Center
10:23PM 34.0831 -83.4719 53° Northeast 397 457 23,100 1,740 Climbing Atlanta Center
10:24PM 34.1533 -83.3611 53° Northeast 403 464 24,800 1,500 Climbing Atlanta Center
10:25PM 34.2258 -83.2475 52° Northeast 417 480 26,200 1,260 Climbing Atlanta Center
10:26PM 34.3000 -83.1286 53° Northeast 428 493 27,400 1,200 Climbing Atlanta Center
10:27PM 34.3764 -83.0094 52° Northeast 444 511 28,600 1,380 Climbing Atlanta Center
10:28PM 34.4525 -82.8750 56° Northeast 444 511 30,200 1,620 Climbing Atlanta Center
10:29PM 34.5286 -82.7578 52° Northeast 444 511 31,900 1,680 Climbing Atlanta Center
10:30PM 34.5981 -82.6358 55° Northeast 433 498 33,600 1,500 Climbing Atlanta Center
10:31PM 34.6636 -82.5361 51° Northeast 428 493 34,900 660 Climbing Atlanta Center
10:32PM 34.7331 -82.4211 54° Northeast 423 487 35,000  Climbing Atlanta Center
10:33PM 34.8047 -82.3033 53° Northeast 418 481 35,000  Level Atlanta Center
10:34PM 34.8739 -82.1906 53° Northeast 418 481 35,000  Level Atlanta Center
10:35PM 34.9453 -82.0775 52° Northeast 418 481 35,000  Level Atlanta Center
10:36PM 35.0122 -81.9644 54° Northeast 418 481 35,000  Level Atlanta Center
10:37PM 35.0789 -81.8433 56° Northeast 418 481 35,000  Level Atlanta Center
10:38PM 35.1494 -81.7094 57° Northeast 428 493 35,000  Level Atlanta Center
10:39PM 35.2139 -81.5856 57° Northeast 428 493 35,000  Level Atlanta Center
10:40PM 35.2783 -81.4667 56° Northeast 417 480 35,000  Level Atlanta Center
10:41PM 35.3403 -81.3425 59° Northeast 424 488 35,000  Level Atlanta Center
10:42PM 35.4042 -81.2181 58° Northeast 424 488 35,000  Level Atlanta Center
10:43PM 35.4681 -81.0936 58° Northeast 424 488 35,000  Level Atlanta Center
10:44PM 35.5339 -80.9711 57° Northeast 424 488 35,000  Level Atlanta Center
10:45PM 35.5975 -80.8489 57° Northeast 424 488 35,000  Level Atlanta Center
10:46PM 35.6611 -80.7261 57° Northeast 424 488 35,000  Level Atlanta Center
10:47PM 35.7244 -80.6058 57° Northeast 418 481 35,000  Level Atlanta Center
10:48PM 35.7858 -80.4856 58° Northeast 418 481 35,000  Level Atlanta Center
10:49PM 35.8508 -80.3597 57° Northeast 418 481 35,000  Level Atlanta Center
10:51PM 35.9519 -80.1594 58° Northeast 431 496 35,000 -360 Level Washington Center
10:52PM 36.0217 -80.0272 57° Northeast 419 482 34,000 -1,020 Descending Washington Center
10:53PM 36.0908 -79.9025 56° Northeast 419 482 33,000 -540 Descending Washington Center
10:54PM 36.1511 -79.7978 54° Northeast 419 482 33,000 -600 Level Washington Center
10:55PM 36.2267 -79.6603 56° Northeast 432 497 31,900 -1,020 Descending Washington Center
10:56PM 36.2889 -79.5475 56° Northeast 432 497 31,000 -960 Descending Washington Center
10:57PM 36.3597 -79.4272 54° Northeast 432 497 30,100 -960 Descending Washington Center
10:58PM 36.4264 -79.2964 58° Northeast 432 497 29,100 -1,140 Descending Washington Center
10:59PM 36.5014 -79.1631 55° Northeast 438 504 27,900 -1,020 Descending Washington Center
11:00PM 36.5650 -79.0572 53° Northeast 426 490 27,100 -960 Descending Washington Center
11:01PM 36.6331 -78.9361 55° Northeast 426 490 26,000 -1,380 Descending Washington Center
11:02PM 36.6969 -78.8144 57° Northeast 421 484 24,500 -1,320 Descending Washington Center
11:03PM 36.7583 -78.7003 56° Northeast 409 471 23,500 -780 Descending Washington Center
11:04PM 36.8239 -78.5836 55° Northeast 409 471 23,000 -300 Descending Washington Center
11:05PM 36.8936 -78.4592 55° Northeast 409 471 23,000  Level Washington Center
11:06PM 36.9569 -78.3392 57° Northeast 409 471 23,000  Level Washington Center
11:07PM 37.0200 -78.2244 55° Northeast 409 471 23,000  Level Washington Center
11:08PM 37.0744 -78.1247 56° Northeast 387 445 23,000  Level Washington Center
11:09PM 37.1331 -78.0172 56° Northeast 372 428 23,000  Level Washington Center
11:10PM 37.1914 -77.9044 57° Northeast 367 422 23,000  Level Washington Center
11:11PM 37.2458 -77.7911 59° Northeast 372 428 23,000  Level Washington Center
11:12PM 37.2606 -77.6586 82° East 372 428 23,000  Level Washington Center
11:13PM 37.2753 -77.5364 81° East 383 441 23,000  Level Washington Center
11:14PM 37.2919 -77.4061 81° East 388 447 23,000  Level Washington Center
11:15PM 37.3703 -77.3217 41° Northeast 367 422 23,000 -360 Level Washington Center
11:16PM 37.4853 -77.2983 North 332 382 22,400 -900 Descending Washington Center
11:17PM 37.5983 -77.2797 North 359 413 21,300 -720 Descending Washington Center
11:18PM 37.7069 -77.2586 North 379 436 21,000 -600 Descending Washington Center
11:19PM 37.8031 -77.2422 North 379 436 20,100 -1,260 Descending Washington Center
11:20PM 37.8953 -77.2258 North 352 405 18,500 -1,740 Descending Washington Center
11:21PM 37.9831 -77.2094 North 331 381 16,700 -1,860 Descending Washington Center
11:22PM 38.0686 -77.1981 North 315 362 14,900 -1,800 Descending Washington Center
11:23PM 38.1503 -77.1839 North 301 346 13,100 -2,460 Descending Washington Center
11:24PM 38.2233 -77.1644 12° North 296 341 10,000 -1,560 Descending Washington Center
11:25PM 38.3092 -77.1450 10° North 291 335 10,000 -300 Level Washington Center
11:26PM 38.3867 -77.1253 11° North 291 335 9,400 -1,020 Descending Washington Center
11:27PM 38.4597 -77.1083 10° North 279 321 8,100 -1,500 Descending Washington Center
11:28PM 38.5225 -77.0964 North 252 290 6,500 -1,800 Descending Washington Center
11:29PM 38.5769 -77.0789 14° North 225 259 4,500 -1,920 Descending Washington Center
11:30PM 38.6333 -77.0667 10° North 215 247 3,100 -1,020 Descending Potomac TRACON
11:31PM 38.6833 -77.0500 15° North 174 200 2,800 -480 Descending Potomac TRACON
11:32PM 38.7333 -77.0333 15° North 172 198 2,200 -660 Descending Potomac TRACON
11:33PM 38.7667 -77.0333 360° North 170 196 1,600 -780 Descending Potomac TRACON
11:34PM 38.8000 -77.0333 360° North 131 151 800 -840 Descending Potomac TRACON
11:36PM 38.8500 -77.0333 North  Level FlightAware Approximate
11:43PM 38.8519 -77.0377 North  Level Estimated